Stones Mill, Virginia
Current Conditions -  °F | °C
As of 11:55 PM on Friday 19 Dec 2014 (Local Time) from KMKJ Reporting Station
Clear Clear  
Wind Chill: 30°   Ceiling: Unl
Heat Index: 30°   Visibility: 10mi
Dew Point: 24°   Wind: 0mph
Humidity: 77%   Direction: NA
Pressure: 30.17"   Gusts: NA
Location:  36.9511°N, 81.112°W
Report Text: KMKJ 200455Z AUTO 00000KT 10SM CLR M01/M04 A3017 RMK AO2 T10101045 400561017
Loading
Personal Weather Stations






























Interactive Weather Map New forecast layout! Learn more

10-Day Weather Forecast

Advertisements
Track Severe Weather on mobile